createdAt,value
2022-10-29T00:01:05.667Z,17.82
2022-10-29T00:03:36.375Z,19.75
2022-10-29T00:06:07.778Z,20.12
2022-10-29T00:08:37.598Z,23.05
2022-10-29T00:11:15.724Z,24.02
2022-10-29T00:13:43.909Z,19.37
2022-10-29T00:16:15.533Z,19.62
2022-10-29T00:18:44.106Z,22.77
2022-10-29T00:21:18.644Z,21.82
2022-10-29T00:23:47.162Z,19.95
2022-10-29T00:26:15.700Z,20.62
2022-10-29T00:28:43.467Z,19.20
2022-10-29T00:31:18.408Z,18.75
2022-10-29T00:33:46.444Z,20.40
2022-10-29T00:36:19.014Z,22.42
2022-10-29T00:38:46.734Z,21.40
2022-10-29T00:41:18.844Z,19.48
2022-10-29T00:43:50.641Z,19.75
2022-10-29T00:46:34.002Z,17.65
2022-10-29T00:49:02.702Z,17.05
2022-10-29T00:51:32.436Z,15.53
2022-10-29T00:54:07.904Z,13.75
2022-10-29T00:56:40.777Z,12.80
2022-10-29T00:59:09.750Z,14.58
2022-10-29T01:01:39.233Z,15.53
2022-10-29T01:04:07.806Z,14.60
2022-10-29T01:06:35.615Z,13.90
2022-10-29T01:09:03.585Z,16.77
2022-10-29T01:12:15.833Z,16.42
2022-10-29T01:15:06.280Z,14.13
2022-10-29T01:17:58.994Z,15.65
2022-10-29T01:20:43.949Z,18.70
2022-10-29T01:23:19.886Z,17.90
2022-10-29T01:26:29.089Z,19.05
2022-10-29T01:29:38.015Z,17.05
2022-10-29T01:32:16.031Z,16.20
2022-10-29T01:34:51.884Z,15.28
2022-10-29T01:37:54.904Z,14.43
2022-10-29T01:40:42.962Z,12.80
2022-10-29T01:43:16.257Z,15.50
2022-10-29T01:45:52.329Z,10.78
2022-10-29T01:48:29.028Z,15.53
2022-10-29T01:50:58.039Z,10.93
2022-10-29T01:53:27.313Z,11.95
2022-10-29T01:55:54.838Z,16.87
2022-10-29T01:58:25.157Z,15.65
2022-10-29T02:01:10.588Z,16.12
2022-10-29T02:03:54.148Z,15.63
2022-10-29T02:07:00.270Z,15.53
2022-10-29T02:09:48.378Z,10.70
2022-10-29T02:12:21.606Z,13.62
2022-10-29T02:15:00.624Z,14.80
2022-10-29T02:17:31.748Z,9.05
2022-10-29T02:20:08.193Z,10.58
2022-10-29T02:22:36.048Z,9.28
2022-10-29T02:25:05.574Z,13.05
2022-10-29T02:27:33.256Z,9.60
2022-10-29T02:30:00.863Z,10.48
2022-10-29T02:32:28.350Z,9.50
2022-10-29T02:34:56.056Z,10.40
2022-10-29T02:37:23.691Z,13.35
2022-10-29T02:39:51.393Z,13.75
2022-10-29T02:42:18.893Z,18.12
2022-10-29T02:44:46.439Z,16.10
2022-10-29T02:47:14.133Z,17.98
2022-10-29T02:49:41.700Z,13.08
2022-10-29T02:52:09.328Z,10.65
2022-10-29T02:54:38.692Z,12.65
2022-10-29T02:57:06.912Z,10.45
2022-10-29T02:59:34.534Z,11.93
2022-10-29T03:02:02.319Z,15.08
2022-10-29T03:04:29.971Z,10.18
2022-10-29T03:06:57.681Z,10.03
2022-10-29T03:09:25.337Z,12.15
2022-10-29T03:11:53.176Z,8.90
2022-10-29T03:14:20.928Z,10.58
2022-10-29T03:16:48.512Z,8.68
2022-10-29T03:19:16.103Z,8.43
2022-10-29T03:21:43.862Z,11.30
2022-10-29T03:24:11.712Z,8.80
2022-10-29T03:26:39.396Z,13.18
2022-10-29T03:29:07.244Z,10.75
2022-10-29T03:31:35.353Z,11.78
2022-10-29T03:34:03.030Z,10.20
2022-10-29T03:36:30.762Z,9.23
2022-10-29T03:38:58.231Z,7.80
2022-10-29T03:41:25.960Z,8.35
2022-10-29T03:43:53.694Z,9.60
2022-10-29T03:46:21.403Z,11.83
2022-10-29T03:48:50.046Z,8.45
2022-10-29T03:51:17.614Z,16.05
2022-10-29T03:53:45.392Z,10.32
2022-10-29T03:56:13.182Z,14.00
2022-10-29T03:58:41.068Z,8.00
2022-10-29T04:01:10.055Z,12.40
2022-10-29T04:03:41.328Z,10.72
2022-10-29T04:06:15.328Z,9.20
2022-10-29T04:08:43.023Z,8.83
2022-10-29T04:11:14.104Z,10.80
2022-10-29T04:13:41.852Z,7.47
2022-10-29T04:16:09.508Z,10.00
2022-10-29T04:18:38.318Z,11.40
2022-10-29T04:23:08.067Z,13.90
2022-10-29T04:26:55.404Z,10.65
2022-10-29T04:28:42.994Z,9.90
2022-10-29T04:31:06.864Z,10.10
2022-10-29T04:33:34.713Z,11.12
2022-10-29T04:36:03.151Z,9.65
2022-10-29T04:38:30.704Z,8.20
2022-10-29T04:40:59.272Z,13.90
2022-10-29T04:43:27.995Z,14.95
2022-10-29T04:45:57.950Z,12.85
2022-10-29T04:48:27.308Z,15.55
2022-10-29T04:50:55.157Z,12.23
2022-10-29T04:53:23.114Z,22.62
2022-10-29T04:55:50.714Z,9.70
2022-10-29T04:58:19.751Z,13.22
2022-10-29T05:00:47.785Z,11.03
2022-10-29T05:03:15.735Z,11.95
2022-10-29T05:05:43.401Z,11.18
2022-10-29T05:08:11.723Z,13.75
2022-10-29T05:10:40.167Z,11.57
2022-10-29T05:13:11.618Z,13.25
2022-10-29T05:15:40.372Z,19.75
2022-10-29T05:18:09.501Z,14.85
2022-10-29T05:20:37.205Z,16.30
2022-10-29T05:23:07.487Z,16.65
2022-10-29T05:25:38.435Z,22.65
2022-10-29T05:28:11.716Z,21.73
2022-10-29T05:30:40.991Z,29.95
2022-10-29T05:33:09.643Z,29.10
2022-10-29T05:35:38.214Z,35.05
2022-10-29T05:38:06.362Z,23.75
2022-10-29T05:40:34.143Z,21.20
2022-10-29T05:43:02.014Z,14.73
2022-10-29T05:45:29.829Z,13.40
2022-10-29T05:48:01.081Z,12.40
2022-10-29T05:50:30.096Z,13.18
2022-10-29T05:53:01.349Z,14.78
2022-10-29T05:55:30.306Z,14.80
2022-10-29T05:58:04.126Z,17.55
2022-10-29T06:00:35.372Z,15.18
2022-10-29T06:03:03.369Z,23.38
2022-10-29T06:05:31.174Z,13.58
2022-10-29T06:08:00.712Z,8.48
2022-10-29T06:10:29.441Z,10.88
2022-10-29T06:12:57.086Z,13.32
2022-10-29T06:15:25.066Z,16.00
2022-10-29T06:17:52.700Z,15.53
2022-10-29T06:20:21.680Z,10.90
2022-10-29T06:22:58.070Z,8.38
2022-10-29T06:25:26.966Z,10.43
2022-10-29T06:27:59.944Z,9.08
2022-10-29T06:30:28.851Z,10.85
2022-10-29T06:32:56.905Z,11.43
2022-10-29T06:35:27.176Z,9.95
2022-10-29T06:37:56.271Z,11.78
2022-10-29T06:40:25.310Z,11.30
2022-10-29T06:43:05.230Z,8.75
2022-10-29T06:45:34.472Z,11.28
2022-10-29T06:48:04.923Z,7.75
2022-10-29T06:50:34.747Z,13.43
2022-10-29T06:53:05.920Z,10.50
2022-10-29T06:55:34.537Z,9.95
2022-10-29T06:58:09.266Z,13.70
2022-10-29T07:00:37.060Z,10.93
2022-10-29T07:03:05.076Z,8.30
2022-10-29T07:05:33.399Z,19.10
2022-10-29T07:08:01.998Z,12.55
2022-10-29T07:10:31.780Z,8.53
2022-10-29T07:12:59.631Z,14.35
2022-10-29T07:15:30.818Z,7.72
2022-10-29T07:18:04.399Z,7.97
2022-10-29T07:20:35.906Z,9.78
2022-10-29T07:23:04.157Z,10.85
2022-10-29T07:25:32.572Z,10.63
2022-10-29T07:28:19.912Z,8.60
2022-10-29T07:30:47.961Z,8.88
2022-10-29T07:33:16.212Z,16.65
2022-10-29T07:35:44.312Z,16.32
2022-10-29T07:38:12.838Z,13.45
2022-10-29T07:40:49.719Z,11.60
2022-10-29T07:43:18.854Z,12.70
2022-10-29T07:45:49.488Z,16.12
2022-10-29T07:48:19.022Z,17.52
2022-10-29T07:50:47.868Z,19.07
2022-10-29T07:53:15.645Z,48.75
2022-10-29T07:55:43.296Z,22.65
2022-10-29T07:58:12.412Z,13.50
2022-10-29T08:00:41.816Z,14.87
2022-10-29T08:03:11.597Z,17.60
2022-10-29T08:05:42.295Z,16.80
2022-10-29T08:08:09.266Z,20.60
2022-10-29T08:10:37.156Z,16.00
2022-10-29T08:13:06.168Z,18.07
2022-10-29T08:15:34.919Z,16.90
2022-10-29T08:18:08.504Z,18.10
2022-10-29T08:20:36.211Z,16.35
2022-10-29T08:23:03.837Z,15.03
2022-10-29T08:25:31.431Z,14.83
2022-10-29T08:28:02.380Z,16.95
2022-10-29T08:30:31.169Z,20.57
2022-10-29T08:32:59.507Z,20.32
2022-10-29T08:35:28.275Z,17.62
2022-10-29T08:37:56.042Z,16.55
2022-10-29T08:40:38.083Z,19.42
2022-10-29T08:43:44.589Z,24.10
2022-10-29T08:46:37.358Z,16.75
2022-10-29T08:49:15.880Z,16.77
2022-10-29T08:51:48.783Z,15.75
2022-10-29T08:54:30.203Z,16.05
2022-10-29T08:56:57.255Z,17.50
2022-10-29T08:59:29.202Z,16.17
2022-10-29T09:01:56.901Z,17.05
2022-10-29T09:04:36.544Z,16.20
2022-10-29T09:07:33.977Z,19.82
2022-10-29T09:10:22.059Z,17.73
2022-10-29T09:13:21.260Z,17.90
2022-10-29T09:16:12.375Z,16.48
2022-10-29T09:18:57.154Z,14.25
2022-10-29T09:21:45.307Z,16.48
2022-10-29T09:24:45.385Z,16.45
2022-10-29T09:27:23.963Z,14.63
2022-10-29T09:30:02.752Z,13.18
2022-10-29T09:32:35.773Z,14.45
2022-10-29T09:35:17.657Z,15.85
2022-10-29T09:37:54.760Z,13.50
2022-10-29T09:40:35.925Z,13.25
2022-10-29T09:43:17.687Z,17.05
2022-10-29T09:45:50.696Z,15.80
2022-10-29T09:48:23.846Z,14.65
2022-10-29T09:51:21.373Z,19.70
2022-10-29T09:53:51.206Z,26.27
2022-10-29T09:56:19.104Z,13.20
2022-10-29T09:58:52.104Z,16.42
2022-10-29T10:01:19.840Z,16.50
2022-10-29T10:03:52.587Z,19.87
2022-10-29T10:06:20.309Z,13.22
2022-10-29T10:09:05.419Z,11.60
2022-10-29T10:11:42.659Z,15.38
2022-10-29T10:14:24.664Z,11.65
2022-10-29T10:17:00.458Z,12.58
2022-10-29T10:19:31.872Z,13.93
2022-10-29T10:22:03.206Z,10.48
2022-10-29T10:24:36.917Z,14.43
2022-10-29T10:27:27.731Z,11.43
2022-10-29T10:30:09.785Z,13.53
2022-10-29T10:32:37.308Z,14.50
2022-10-29T10:35:25.932Z,18.77
2022-10-29T10:37:55.133Z,14.58
2022-10-29T10:40:24.763Z,14.47
2022-10-29T10:42:54.862Z,11.35
2022-10-29T10:45:30.874Z,12.23
2022-10-29T10:47:59.381Z,11.20
2022-10-29T10:50:30.856Z,13.70
2022-10-29T10:53:02.117Z,15.15
2022-10-29T10:55:38.617Z,12.23
2022-10-29T10:58:26.405Z,11.05
2022-10-29T11:01:02.934Z,14.38
2022-10-29T11:03:38.844Z,9.98
2022-10-29T11:06:26.082Z,13.35
2022-10-29T11:09:05.142Z,10.78
2022-10-29T11:11:37.566Z,11.00
2022-10-29T11:14:28.291Z,13.00
2022-10-29T11:16:59.405Z,13.88
2022-10-29T11:19:36.795Z,14.70
2022-10-29T11:22:22.099Z,17.55
2022-10-29T11:25:05.975Z,13.70
2022-10-29T11:27:44.877Z,11.05
2022-10-29T11:30:18.781Z,11.08
2022-10-29T11:35:46.589Z,14.15
2022-10-29T11:38:43.808Z,16.00
2022-10-29T11:41:42.642Z,12.30
2022-10-29T11:44:13.343Z,12.53
2022-10-29T11:46:53.220Z,10.72
2022-10-29T11:49:43.824Z,10.08
2022-10-29T11:52:21.050Z,12.37
2022-10-29T11:55:19.580Z,10.63
2022-10-29T11:57:53.213Z,10.32
2022-10-29T12:00:24.029Z,11.33
2022-10-29T12:03:08.719Z,9.78
2022-10-29T12:05:56.029Z,12.27
2022-10-29T12:08:40.863Z,10.68
2022-10-29T12:11:42.983Z,14.07
2022-10-29T12:14:39.685Z,15.70
2022-10-29T12:17:24.966Z,12.33
2022-10-29T12:20:04.054Z,13.60
2022-10-29T12:22:40.084Z,13.85
2022-10-29T12:25:27.851Z,12.88
2022-10-29T12:28:14.656Z,12.23
2022-10-29T12:30:47.766Z,11.33
2022-10-29T12:33:26.303Z,12.70
2022-10-29T12:38:40.449Z,10.00
2022-10-29T12:41:25.399Z,10.28
2022-10-29T12:44:01.464Z,11.08
2022-10-29T12:46:46.566Z,13.53
2022-10-29T12:49:32.264Z,9.95
2022-10-29T12:52:34.848Z,9.98
2022-10-29T12:55:06.510Z,17.05
2022-10-29T12:57:35.598Z,10.72
2022-10-29T13:00:33.169Z,11.83
2022-10-29T13:03:01.236Z,15.03
2022-10-29T13:05:37.145Z,13.40
2022-10-29T13:08:10.423Z,25.02
2022-10-29T13:10:51.316Z,11.25
2022-10-29T13:13:25.126Z,12.88
2022-10-29T13:16:19.043Z,12.25
2022-10-29T13:18:52.702Z,11.97
2022-10-29T13:22:00.354Z,13.05
2022-10-29T13:24:30.473Z,11.55
2022-10-29T13:27:21.725Z,12.78
2022-10-29T13:30:15.721Z,15.00
2022-10-29T13:32:43.752Z,12.98
2022-10-29T13:35:29.432Z,14.05
2022-10-29T13:38:15.152Z,14.28
2022-10-29T13:41:08.946Z,14.33
2022-10-29T13:43:39.595Z,17.73
2022-10-29T13:46:22.914Z,13.20
2022-10-29T13:48:53.153Z,22.10
2022-10-29T13:51:29.529Z,24.85
2022-10-29T13:54:18.466Z,44.60
2022-10-29T13:56:51.771Z,181.28
2022-10-29T13:59:37.105Z,106.47
2022-10-29T14:02:25.275Z,25.70
2022-10-29T14:04:58.283Z,17.20
2022-10-29T14:07:44.806Z,16.32
2022-10-29T14:10:41.055Z,18.87
2022-10-29T14:13:32.618Z,14.80
2022-10-29T14:16:08.496Z,16.57
2022-10-29T14:18:44.974Z,16.57
2022-10-29T14:21:25.439Z,19.12
2022-10-29T14:24:08.714Z,19.77
2022-10-29T14:26:40.126Z,22.35
2022-10-29T14:29:24.665Z,22.20
2022-10-29T14:32:22.815Z,22.40
2022-10-29T14:34:51.762Z,43.83
2022-10-29T14:37:30.764Z,25.57
2022-10-29T14:40:02.502Z,28.65
2022-10-29T14:42:38.944Z,33.00
2022-10-29T14:45:18.549Z,30.25
2022-10-29T14:47:54.643Z,33.75
2022-10-29T14:53:11.314Z,54.67
2022-10-29T14:55:43.946Z,30.77
2022-10-29T14:58:15.896Z,40.17
2022-10-29T15:00:59.389Z,57.13
2022-10-29T15:03:30.607Z,67.08
2022-10-29T15:06:21.455Z,63.35
2022-10-29T15:09:00.750Z,58.02
2022-10-29T15:11:41.838Z,62.05
2022-10-29T15:14:38.209Z,103.27
2022-10-29T15:19:45.826Z,74.05
2022-10-29T15:22:22.865Z,76.30
2022-10-29T15:24:52.335Z,233.40
2022-10-29T15:27:21.422Z,245.35
2022-10-29T15:29:49.601Z,223.05
2022-10-29T15:32:18.415Z,201.70
2022-10-29T15:34:56.126Z,180.37
2022-10-29T15:37:34.672Z,153.90
2022-10-29T15:40:11.615Z,135.30
2022-10-29T15:42:39.627Z,125.27
2022-10-29T15:45:23.825Z,120.40
2022-10-29T15:48:02.258Z,111.35
2022-10-29T15:50:42.568Z,108.55
2022-10-29T15:53:15.048Z,105.67
2022-10-29T15:55:44.970Z,110.40
2022-10-29T15:58:17.610Z,104.50
2022-10-29T16:00:45.680Z,97.25
2022-10-29T16:03:23.073Z,98.27
2022-10-29T16:05:58.613Z,95.00
2022-10-29T16:08:46.487Z,89.37
2022-10-29T16:11:19.520Z,92.02
2022-10-29T16:13:54.643Z,87.72
2022-10-29T16:16:22.903Z,80.97
2022-10-29T16:18:51.495Z,75.00
2022-10-29T16:21:22.727Z,70.20
2022-10-29T16:23:51.329Z,69.77
2022-10-29T16:26:22.996Z,62.62
2022-10-29T16:28:54.118Z,60.33
2022-10-29T16:31:26.556Z,63.30
2022-10-29T16:33:57.796Z,65.97
2022-10-29T16:36:25.663Z,61.45
2022-10-29T16:38:53.516Z,64.50
2022-10-29T16:41:21.283Z,63.75
2022-10-29T16:43:49.113Z,66.50
2022-10-29T16:46:16.808Z,69.80
2022-10-29T16:48:45.106Z,77.27
2022-10-29T16:51:12.901Z,78.87
2022-10-29T16:53:40.821Z,91.60
2022-10-29T16:56:09.302Z,109.27
2022-10-29T16:58:37.231Z,82.12
2022-10-29T17:01:07.935Z,86.00
2022-10-29T17:03:37.724Z,73.28
2022-10-29T17:06:08.789Z,68.40
2022-10-29T17:08:37.701Z,55.98
2022-10-29T17:11:10.092Z,48.55
2022-10-29T17:13:41.375Z,42.93
2022-10-29T17:16:15.732Z,45.67
2022-10-29T17:18:47.178Z,46.75
2022-10-29T17:21:16.076Z,41.28
2022-10-29T17:23:45.957Z,53.30
2022-10-29T17:26:14.829Z,53.15
2022-10-29T17:28:43.353Z,58.48
2022-10-29T17:31:11.310Z,57.98
2022-10-29T17:33:39.071Z,62.88
2022-10-29T17:36:11.386Z,64.62
2022-10-29T17:38:39.297Z,63.48
2022-10-29T17:41:07.255Z,61.60
2022-10-29T17:43:35.579Z,67.00
2022-10-29T17:46:04.102Z,68.42
2022-10-29T17:48:34.290Z,74.12
2022-10-29T17:51:02.989Z,79.62
2022-10-29T17:53:33.213Z,85.47
2022-10-29T17:56:01.447Z,68.97
2022-10-29T17:58:30.606Z,90.97
2022-10-29T18:01:09.098Z,80.90
2022-10-29T18:03:37.210Z,83.87
2022-10-29T18:06:08.591Z,86.97
2022-10-29T18:08:41.418Z,84.90
2022-10-29T18:11:19.602Z,85.65
2022-10-29T18:13:48.969Z,74.92
2022-10-29T18:16:20.119Z,70.97
2022-10-29T18:19:01.951Z,73.83
2022-10-29T18:21:26.123Z,67.25
2022-10-29T18:23:56.459Z,72.97
2022-10-29T18:26:30.184Z,72.37
2022-10-29T18:29:00.903Z,74.70
2022-10-29T18:31:31.102Z,75.08
2022-10-29T18:34:03.949Z,68.10
2022-10-29T18:36:32.324Z,71.00
2022-10-29T18:39:00.459Z,77.20
2022-10-29T18:41:28.147Z,77.35
2022-10-29T18:43:56.741Z,70.97
2022-10-29T18:46:25.128Z,74.45
2022-10-29T18:48:53.514Z,73.70
2022-10-29T18:51:25.532Z,82.17
2022-10-29T18:53:57.383Z,84.85
2022-10-29T18:56:27.804Z,136.20
2022-10-29T18:58:56.877Z,108.25
2022-10-29T19:01:33.446Z,82.47
2022-10-29T19:04:04.737Z,76.15
2022-10-29T19:06:36.118Z,71.90
2022-10-29T19:09:07.877Z,66.12
2022-10-29T19:11:36.286Z,69.95
2022-10-29T19:14:07.946Z,74.17
2022-10-29T19:16:35.757Z,67.67
2022-10-29T19:19:11.157Z,67.32
2022-10-29T19:24:08.140Z,70.45
2022-10-29T19:26:36.011Z,79.12
2022-10-29T19:29:05.528Z,82.75
2022-10-29T19:31:35.518Z,86.72
2022-10-29T19:34:05.716Z,81.65
2022-10-29T19:36:35.192Z,84.50
2022-10-29T19:39:04.100Z,73.12
2022-10-29T19:41:32.291Z,73.78
2022-10-29T19:44:01.903Z,72.08
2022-10-29T19:46:30.635Z,75.57
2022-10-29T19:48:58.766Z,86.22
2022-10-29T19:51:27.040Z,91.05
2022-10-29T19:53:56.685Z,73.92
2022-10-29T19:56:24.331Z,71.12
2022-10-29T19:58:51.873Z,67.30
2022-10-29T20:01:19.666Z,67.35
2022-10-29T20:03:47.944Z,64.77
2022-10-29T20:06:17.100Z,58.55
2022-10-29T20:08:44.897Z,58.48
2022-10-29T20:11:12.474Z,57.15
2022-10-29T20:13:40.445Z,51.92
2022-10-29T20:16:18.217Z,55.70
2022-10-29T20:18:46.902Z,55.95
2022-10-29T20:21:15.670Z,53.90
2022-10-29T20:23:44.531Z,53.98
2022-10-29T20:26:12.721Z,56.40
2022-10-29T20:28:41.025Z,57.17
2022-10-29T20:31:29.780Z,57.80
2022-10-29T20:33:58.474Z,62.65
2022-10-29T20:36:29.856Z,59.98
2022-10-29T20:38:58.253Z,62.00
2022-10-29T20:41:26.614Z,69.00
2022-10-29T20:43:56.812Z,73.42
2022-10-29T20:46:25.973Z,64.00
2022-10-29T20:48:53.895Z,72.22
2022-10-29T20:51:22.542Z,67.53
2022-10-29T20:53:51.940Z,63.95
2022-10-29T20:56:22.261Z,70.67
2022-10-29T20:58:49.971Z,64.77
2022-10-29T21:01:20.454Z,65.55
2022-10-29T21:03:52.049Z,66.15
2022-10-29T21:06:20.362Z,61.40
2022-10-29T21:08:50.366Z,61.48
2022-10-29T21:11:20.363Z,61.90
2022-10-29T21:13:48.565Z,68.60
2022-10-29T21:16:22.428Z,71.02
2022-10-29T21:18:54.160Z,69.07
2022-10-29T21:21:22.710Z,63.48
2022-10-29T21:23:50.840Z,67.17
2022-10-29T21:26:21.748Z,63.98
2022-10-29T21:28:50.912Z,63.48
2022-10-29T21:31:19.816Z,64.15
2022-10-29T21:33:52.472Z,62.98
2022-10-29T21:36:20.983Z,61.70
2022-10-29T21:38:48.725Z,58.52
2022-10-29T21:41:17.676Z,64.25
2022-10-29T21:43:45.599Z,66.55
2022-10-29T21:46:13.492Z,62.17
2022-10-29T21:48:41.148Z,69.75
2022-10-29T21:51:13.858Z,74.05
2022-10-29T21:53:41.783Z,70.75
2022-10-29T21:56:12.764Z,67.62
2022-10-29T21:58:40.852Z,72.47
2022-10-29T22:01:12.504Z,67.25
2022-10-29T22:03:42.963Z,62.03
2022-10-29T22:06:14.834Z,57.98
2022-10-29T22:08:43.121Z,49.90
2022-10-29T22:11:12.280Z,52.30
2022-10-29T22:13:40.035Z,52.85
2022-10-29T22:16:09.014Z,43.68
2022-10-29T22:18:37.643Z,43.73
2022-10-29T22:21:15.388Z,47.90
2022-10-29T22:23:50.322Z,52.78
2022-10-29T22:26:20.285Z,51.25
2022-10-29T22:28:48.357Z,52.23
2022-10-29T22:31:18.372Z,53.58
2022-10-29T22:33:46.624Z,47.13
2022-10-29T22:36:24.769Z,51.85
2022-10-29T22:38:55.630Z,51.75
2022-10-29T22:41:25.200Z,47.13
2022-10-29T22:43:53.544Z,52.43
2022-10-29T22:46:22.114Z,54.60
2022-10-29T22:48:49.975Z,50.95
2022-10-29T22:51:21.841Z,49.73
2022-10-29T22:53:50.879Z,48.95
2022-10-29T22:56:25.135Z,52.83
2022-10-29T22:58:53.562Z,51.63
2022-10-29T23:01:26.125Z,54.42
2022-10-29T23:03:53.985Z,57.03
2022-10-29T23:06:23.901Z,60.70
2022-10-29T23:08:53.343Z,66.62
2022-10-29T23:11:24.970Z,65.47
2022-10-29T23:13:58.253Z,60.28
2022-10-29T23:16:29.340Z,54.42
2022-10-29T23:19:01.014Z,50.45
2022-10-29T23:21:29.254Z,50.10
2022-10-29T23:23:57.118Z,50.67
2022-10-29T23:26:25.783Z,50.30
2022-10-29T23:28:53.554Z,49.08
2022-10-29T23:31:24.175Z,45.28
2022-10-29T23:33:54.553Z,48.78
2022-10-29T23:36:24.074Z,47.23
2022-10-29T23:38:59.387Z,40.45
2022-10-29T23:41:29.944Z,40.55
2022-10-29T23:43:58.036Z,37.20
2022-10-29T23:46:25.724Z,36.93
2022-10-29T23:48:53.465Z,37.63
2022-10-29T23:51:21.549Z,29.67
2022-10-29T23:53:53.152Z,29.25
2022-10-29T23:56:19.574Z,29.40
2022-10-29T23:58:47.501Z,26.55
